createdAt,value
2018-04-20T00:00:20.760Z,0
2018-04-20T00:01:22.360Z,0
2018-04-20T00:02:24.494Z,0
2018-04-20T00:03:26.141Z,0
2018-04-20T00:04:27.724Z,0
2018-04-20T00:05:29.306Z,0
2018-04-20T00:06:30.951Z,0
2018-04-20T00:07:32.550Z,0
2018-04-20T00:08:34.128Z,0
2018-04-20T00:09:35.843Z,0
2018-04-20T00:10:37.426Z,0
2018-04-20T00:11:39.004Z,0
2018-04-20T00:12:40.582Z,0
2018-04-20T00:13:42.201Z,0
2018-04-20T00:14:43.791Z,0
2018-04-20T00:15:45.373Z,0
2018-04-20T00:16:46.979Z,0
2018-04-20T00:17:48.567Z,0
2018-04-20T00:18:50.151Z,0
2018-04-20T00:19:51.726Z,0
2018-04-20T00:20:53.316Z,0
2018-04-20T00:21:54.908Z,0
2018-04-20T00:22:56.492Z,0
2018-04-20T00:23:58.091Z,0
2018-04-20T00:24:59.672Z,0
2018-04-20T00:26:01.252Z,0
2018-04-20T00:27:02.845Z,0
2018-04-20T00:28:04.473Z,0
2018-04-20T00:29:06.061Z,0
2018-04-20T00:30:07.647Z,0
2018-04-20T00:31:09.253Z,0
2018-04-20T00:32:10.828Z,0
2018-04-20T00:33:12.402Z,0
2018-04-20T00:34:13.982Z,0
2018-04-20T00:35:15.574Z,0
2018-04-20T00:36:17.162Z,0
2018-04-20T00:37:18.757Z,0
2018-04-20T00:38:20.331Z,0
2018-04-20T00:39:21.924Z,0
2018-04-20T00:40:23.509Z,0
2018-04-20T00:41:25.101Z,0
2018-04-20T00:42:26.705Z,0
2018-04-20T00:43:28.303Z,0
2018-04-20T00:44:29.913Z,0
2018-04-20T00:45:31.502Z,0
2018-04-20T00:46:33.125Z,0
2018-04-20T00:47:34.708Z,0
2018-04-20T00:48:36.323Z,0
2018-04-20T00:49:37.903Z,0
2018-04-20T00:50:39.476Z,0
2018-04-20T00:51:41.094Z,0
2018-04-20T00:52:42.693Z,0
2018-04-20T00:53:44.272Z,0
2018-04-20T00:54:45.858Z,0
2018-04-20T00:55:47.997Z,0
2018-04-20T00:56:49.602Z,0
2018-04-20T00:57:51.175Z,0
2018-04-20T00:58:52.788Z,0
2018-04-20T00:59:54.415Z,0
2018-04-20T01:00:55.992Z,0
2018-04-20T01:01:57.572Z,0
2018-04-20T01:02:59.175Z,0
2018-04-20T01:04:00.773Z,0
2018-04-20T01:05:02.360Z,0
2018-04-20T01:06:03.940Z,0
2018-04-20T01:07:05.530Z,0
2018-04-20T01:08:07.127Z,0
2018-04-20T01:09:08.717Z,0
2018-04-20T01:10:10.311Z,0
2018-04-20T01:11:11.879Z,0
2018-04-20T01:12:13.485Z,0
2018-04-20T01:13:15.060Z,0
2018-04-20T01:14:16.660Z,0
2018-04-20T01:15:18.239Z,0
2018-04-20T01:16:19.850Z,0
2018-04-20T01:17:21.716Z,0
2018-04-20T01:18:23.321Z,0
2018-04-20T01:19:24.918Z,0
2018-04-20T01:20:26.513Z,0
2018-04-20T01:21:28.124Z,0
2018-04-20T01:22:29.716Z,0
2018-04-20T01:23:31.304Z,0
2018-04-20T01:24:32.876Z,0
2018-04-20T01:25:34.474Z,0
2018-04-20T01:26:36.055Z,0
2018-04-20T01:27:37.660Z,0
2018-04-20T01:28:39.266Z,0
2018-04-20T01:29:40.863Z,0
2018-04-20T01:30:42.455Z,0
2018-04-20T01:31:44.035Z,0
2018-04-20T01:32:45.635Z,0
2018-04-20T01:33:47.222Z,0
2018-04-20T01:34:48.834Z,0
2018-04-20T01:35:50.443Z,0
2018-04-20T01:36:52.034Z,0
2018-04-20T01:37:53.634Z,0
2018-04-20T01:38:55.220Z,0
2018-04-20T01:39:56.825Z,0
2018-04-20T01:40:58.424Z,0
2018-04-20T01:42:00.009Z,0
2018-04-20T01:43:01.583Z,0
2018-04-20T01:44:03.195Z,0
2018-04-20T01:45:04.766Z,0
2018-04-20T01:46:06.362Z,0
2018-04-20T01:47:07.960Z,0
2018-04-20T01:48:09.567Z,0
2018-04-20T01:49:11.211Z,0
2018-04-20T01:50:12.774Z,0
2018-04-20T01:51:14.351Z,0
2018-04-20T01:52:15.958Z,0
2018-04-20T01:53:17.561Z,0
2018-04-20T01:54:19.157Z,0
2018-04-20T01:55:20.760Z,0
2018-04-20T01:56:22.355Z,0
2018-04-20T01:57:23.920Z,0
2018-04-20T01:58:25.508Z,0
2018-04-20T01:59:27.106Z,0
2018-04-20T02:00:28.695Z,0
2018-04-20T02:01:30.267Z,0
2018-04-20T02:02:31.856Z,0
2018-04-20T02:03:33.472Z,0
2018-04-20T02:04:35.055Z,0
2018-04-20T02:05:36.652Z,0
2018-04-20T02:06:38.243Z,0
2018-04-20T02:07:39.837Z,0
2018-04-20T02:08:41.433Z,0
2018-04-20T02:09:43.037Z,0
2018-04-20T02:10:44.637Z,0
2018-04-20T02:11:46.202Z,0
2018-04-20T02:12:47.798Z,0
2018-04-20T02:13:49.405Z,0
2018-04-20T02:14:50.987Z,0
2018-04-20T02:15:52.568Z,0
2018-04-20T02:16:54.162Z,0
2018-04-20T02:17:55.744Z,0
2018-04-20T02:18:57.314Z,0
2018-04-20T02:19:58.907Z,0
2018-04-20T02:21:00.531Z,0
2018-04-20T02:22:02.150Z,0
2018-04-20T02:23:03.751Z,0
2018-04-20T02:24:05.341Z,0
2018-04-20T02:25:06.933Z,0
2018-04-20T02:26:08.523Z,0
2018-04-20T02:27:10.129Z,0
2018-04-20T02:28:11.709Z,0
2018-04-20T02:29:13.301Z,0
2018-04-20T02:30:14.884Z,0
2018-04-20T02:31:16.490Z,0
2018-04-20T02:32:18.074Z,0
2018-04-20T02:33:19.652Z,0
2018-04-20T02:34:21.233Z,0
2018-04-20T02:35:22.821Z,0
2018-04-20T02:36:24.427Z,0
2018-04-20T02:37:26.008Z,0
2018-04-20T02:38:27.591Z,0
2018-04-20T02:39:29.171Z,0
2018-04-20T02:40:30.753Z,0
2018-04-20T02:41:32.316Z,0
2018-04-20T02:42:33.901Z,0
2018-04-20T02:43:35.495Z,0
2018-04-20T02:44:37.084Z,0
2018-04-20T02:45:38.683Z,0
2018-04-20T02:46:40.269Z,0
2018-04-20T02:47:41.850Z,0
2018-04-20T02:48:43.443Z,0
2018-04-20T02:49:45.054Z,0
2018-04-20T02:50:46.635Z,0
2018-04-20T02:51:48.213Z,0
2018-04-20T02:52:49.805Z,0
2018-04-20T02:53:51.379Z,0
2018-04-20T02:54:52.962Z,0
2018-04-20T02:55:54.546Z,0
2018-04-20T02:56:56.127Z,0
2018-04-20T02:57:57.704Z,0
2018-04-20T02:58:59.287Z,0
2018-04-20T03:00:00.880Z,0
2018-04-20T03:01:02.484Z,0
2018-04-20T03:02:04.068Z,0
2018-04-20T03:03:05.650Z,0
2018-04-20T03:04:07.256Z,0
2018-04-20T03:05:08.845Z,0
2018-04-20T03:06:10.444Z,0
2018-04-20T03:07:12.047Z,0
2018-04-20T03:08:13.639Z,0
2018-04-20T03:09:15.244Z,0
2018-04-20T03:10:16.821Z,0
2018-04-20T03:11:18.398Z,0
2018-04-20T03:12:19.988Z,0
2018-04-20T03:13:21.565Z,0
2018-04-20T03:14:23.148Z,0
2018-04-20T03:15:24.740Z,0
2018-04-20T03:16:26.348Z,0
2018-04-20T03:17:27.940Z,0
2018-04-20T03:18:29.510Z,0
2018-04-20T03:19:31.089Z,0
2018-04-20T03:20:32.732Z,0
2018-04-20T03:21:34.294Z,0
2018-04-20T03:22:35.889Z,0
2018-04-20T03:23:37.473Z,0
2018-04-20T03:24:40.047Z,0
2018-04-20T03:25:41.641Z,0
2018-04-20T03:26:43.213Z,0
2018-04-20T03:27:44.883Z,0
2018-04-20T03:28:46.496Z,0
2018-04-20T03:29:48.076Z,0
2018-04-20T03:30:49.671Z,0
2018-04-20T03:31:51.284Z,0
2018-04-20T03:32:52.847Z,0
2018-04-20T03:33:54.424Z,0
2018-04-20T03:34:56.010Z,0
2018-04-20T03:35:57.597Z,0
2018-04-20T03:36:59.179Z,0
2018-04-20T03:38:00.772Z,0
2018-04-20T03:39:02.347Z,0
2018-04-20T03:40:03.917Z,0
2018-04-20T03:41:05.500Z,0
2018-04-20T03:42:07.088Z,0
2018-04-20T03:43:08.701Z,0
2018-04-20T03:44:10.272Z,0
2018-04-20T03:45:11.868Z,0
2018-04-20T03:46:13.436Z,0
2018-04-20T03:47:15.056Z,0
2018-04-20T03:48:16.623Z,0
2018-04-20T03:49:18.203Z,0
2018-04-20T03:50:19.769Z,0
2018-04-20T03:51:21.359Z,0
2018-04-20T03:52:22.950Z,0
2018-04-20T03:53:24.528Z,0
2018-04-20T03:54:26.115Z,0
2018-04-20T03:55:27.688Z,0
2018-04-20T03:56:29.262Z,0
2018-04-20T03:57:30.919Z,0
2018-04-20T03:58:32.500Z,0
2018-04-20T03:59:34.092Z,0
2018-04-20T04:00:35.668Z,0
2018-04-20T04:01:37.272Z,0
2018-04-20T04:02:38.858Z,0
2018-04-20T04:03:40.456Z,0
2018-04-20T04:04:42.035Z,0
2018-04-20T04:05:43.630Z,0
2018-04-20T04:06:45.215Z,0
2018-04-20T04:07:46.785Z,0
2018-04-20T04:08:48.370Z,0
2018-04-20T04:09:49.965Z,0
2018-04-20T04:10:51.567Z,0
2018-04-20T04:11:53.132Z,0
2018-04-20T04:12:54.712Z,0
2018-04-20T04:13:56.298Z,0
2018-04-20T04:14:57.885Z,0
2018-04-20T04:15:59.513Z,0
2018-04-20T04:17:01.111Z,0
2018-04-20T04:18:02.749Z,0
2018-04-20T04:19:04.286Z,0
2018-04-20T04:20:05.856Z,0
2018-04-20T04:21:07.446Z,0
2018-04-20T04:22:09.561Z,0
2018-04-20T04:23:11.142Z,0
2018-04-20T04:24:12.745Z,0
2018-04-20T04:25:14.328Z,0
2018-04-20T04:26:15.901Z,0
2018-04-20T04:27:17.487Z,0
2018-04-20T04:28:19.077Z,0
2018-04-20T04:29:20.645Z,0
2018-04-20T04:30:22.220Z,0
2018-04-20T04:31:23.805Z,0
2018-04-20T04:32:25.428Z,0
2018-04-20T04:33:27.002Z,0
2018-04-20T04:34:28.593Z,0
2018-04-20T04:35:30.184Z,0
2018-04-20T04:36:31.763Z,0
2018-04-20T04:37:33.341Z,0
2018-04-20T04:38:34.936Z,0
2018-04-20T04:39:36.513Z,0
2018-04-20T04:40:38.089Z,0
2018-04-20T04:41:39.700Z,0
2018-04-20T04:42:41.285Z,0
2018-04-20T04:43:42.881Z,0
2018-04-20T04:44:44.466Z,0
2018-04-20T04:45:46.045Z,0
2018-04-20T04:46:47.636Z,0
2018-04-20T04:47:49.219Z,0
2018-04-20T04:48:50.803Z,0
2018-04-20T04:49:52.397Z,0
2018-04-20T04:50:53.988Z,0
2018-04-20T04:51:55.570Z,0
2018-04-20T04:52:57.171Z,0
2018-04-20T04:53:58.766Z,0
2018-04-20T04:55:00.346Z,0
2018-04-20T04:56:01.942Z,0
2018-04-20T04:57:03.537Z,0
2018-04-20T04:58:05.116Z,0
2018-04-20T04:59:06.706Z,0
2018-04-20T05:00:08.289Z,0
2018-04-20T05:01:09.894Z,0
2018-04-20T05:02:11.494Z,0
2018-04-20T05:03:13.096Z,0
2018-04-20T05:04:14.679Z,0
2018-04-20T05:05:16.271Z,0
2018-04-20T05:06:17.862Z,0
2018-04-20T05:07:19.458Z,0
2018-04-20T05:08:21.065Z,0
2018-04-20T05:09:22.631Z,0
2018-04-20T05:10:24.228Z,0
2018-04-20T05:11:25.809Z,0
2018-04-20T05:12:27.467Z,0
2018-04-20T05:13:29.039Z,0
2018-04-20T05:14:30.636Z,0
2018-04-20T05:15:32.225Z,0
2018-04-20T05:16:33.807Z,0
2018-04-20T05:17:35.369Z,0
2018-04-20T05:18:36.954Z,0
2018-04-20T05:19:38.562Z,0
2018-04-20T05:20:40.139Z,0
2018-04-20T05:21:42.583Z,0
2018-04-20T05:22:44.198Z,0
2018-04-20T05:23:45.780Z,0
2018-04-20T05:24:47.363Z,0
2018-04-20T05:25:48.951Z,0
2018-04-20T05:26:50.536Z,0
2018-04-20T05:27:52.129Z,0
2018-04-20T05:28:53.726Z,0
2018-04-20T05:29:55.313Z,0
2018-04-20T05:30:56.895Z,0
2018-04-20T05:31:58.473Z,0
2018-04-20T05:33:00.075Z,0
2018-04-20T05:34:01.645Z,0
2018-04-20T05:35:03.257Z,0
2018-04-20T05:36:04.842Z,0
2018-04-20T05:37:06.437Z,0
2018-04-20T05:38:08.054Z,0
2018-04-20T05:39:09.642Z,0
2018-04-20T05:40:11.212Z,0
2018-04-20T05:41:12.802Z,0
2018-04-20T05:42:14.445Z,0
2018-04-20T05:43:16.021Z,0
2018-04-20T05:44:17.607Z,0
2018-04-20T05:45:19.177Z,0
2018-04-20T05:46:20.760Z,0
2018-04-20T05:47:22.353Z,0
2018-04-20T05:48:23.926Z,5
2018-04-20T05:49:25.517Z,5
2018-04-20T05:50:27.100Z,5
2018-04-20T05:51:28.674Z,5
2018-04-20T05:52:30.277Z,5
2018-04-20T05:53:31.857Z,5
2018-04-20T05:54:33.447Z,5
2018-04-20T05:55:35.038Z,11
2018-04-20T05:56:36.658Z,11
2018-04-20T05:57:38.262Z,11
2018-04-20T05:58:39.839Z,11
2018-04-20T05:59:41.450Z,11
2018-04-20T06:00:43.057Z,11
2018-04-20T06:01:44.658Z,16
2018-04-20T06:02:46.235Z,16
2018-04-20T06:03:47.828Z,16
2018-04-20T06:04:49.439Z,16
2018-04-20T06:05:51.036Z,22
2018-04-20T06:06:52.624Z,22
2018-04-20T06:07:54.227Z,22
2018-04-20T06:08:55.805Z,28
2018-04-20T06:09:57.399Z,28
2018-04-20T06:10:59.005Z,28
2018-04-20T06:12:00.618Z,28
2018-04-20T06:13:02.210Z,33
2018-04-20T06:14:03.817Z,33
2018-04-20T06:15:05.427Z,33
2018-04-20T06:16:07.023Z,39
2018-04-20T06:17:08.622Z,39
2018-04-20T06:18:10.208Z,39
2018-04-20T06:19:11.795Z,39
2018-04-20T06:20:13.388Z,45
2018-04-20T06:21:14.973Z,45
2018-04-20T06:22:16.573Z,45
2018-04-20T06:23:18.196Z,45
2018-04-20T06:24:19.787Z,50
2018-04-20T06:25:21.373Z,50
2018-04-20T06:26:22.964Z,50
2018-04-20T06:27:24.556Z,50
2018-04-20T06:28:26.147Z,56
2018-04-20T06:29:27.715Z,56
2018-04-20T06:30:29.303Z,56
2018-04-20T06:31:30.894Z,56
2018-04-20T06:32:32.491Z,61
2018-04-20T06:33:34.080Z,61
2018-04-20T06:34:35.677Z,61
2018-04-20T06:35:37.261Z,61
2018-04-20T06:36:39.036Z,67
2018-04-20T06:37:40.631Z,67
2018-04-20T06:38:42.214Z,67
2018-04-20T06:39:43.824Z,67
2018-04-20T06:40:45.446Z,67
2018-04-20T06:41:47.048Z,73
2018-04-20T06:42:48.667Z,73
2018-04-20T06:43:50.243Z,73
2018-04-20T06:44:51.932Z,73
2018-04-20T06:45:53.503Z,73
2018-04-20T06:46:55.085Z,78
2018-04-20T06:47:56.671Z,78
2018-04-20T06:48:58.252Z,78
2018-04-20T06:49:59.841Z,84
2018-04-20T06:51:01.439Z,84
2018-04-20T06:52:03.056Z,84
2018-04-20T06:53:04.628Z,84
2018-04-20T06:54:06.202Z,84
2018-04-20T06:55:07.776Z,90
2018-04-20T06:56:09.349Z,90
2018-04-20T06:57:10.953Z,90
2018-04-20T06:58:12.547Z,90
2018-04-20T06:59:14.124Z,90
2018-04-20T07:00:15.702Z,95
2018-04-20T07:01:17.271Z,95
2018-04-20T07:02:18.850Z,95
2018-04-20T07:03:20.435Z,95
2018-04-20T07:04:22.048Z,95
2018-04-20T07:05:23.659Z,95
2018-04-20T07:06:25.230Z,101
2018-04-20T07:07:26.801Z,101
2018-04-20T07:08:28.389Z,101
2018-04-20T07:09:29.978Z,101
2018-04-20T07:10:31.556Z,101
2018-04-20T07:11:33.129Z,106
2018-04-20T07:12:34.728Z,106
2018-04-20T07:13:36.308Z,106
2018-04-20T07:14:37.890Z,106
2018-04-20T07:15:39.465Z,106
2018-04-20T07:16:41.038Z,106
2018-04-20T07:17:42.615Z,106
2018-04-20T07:18:44.180Z,106
2018-04-20T07:19:45.902Z,106
2018-04-20T07:20:47.461Z,106
2018-04-20T07:21:49.042Z,106
2018-04-20T07:22:50.632Z,112
2018-04-20T07:23:52.224Z,112
2018-04-20T07:24:53.825Z,112
2018-04-20T07:25:55.420Z,112
2018-04-20T07:26:56.986Z,112
2018-04-20T07:27:58.594Z,112
2018-04-20T07:29:00.166Z,112
2018-04-20T07:30:01.755Z,112
2018-04-20T07:31:03.377Z,118
2018-04-20T07:32:04.962Z,118
2018-04-20T07:33:06.597Z,118
2018-04-20T07:34:08.187Z,118
2018-04-20T07:35:09.774Z,118
2018-04-20T07:36:11.365Z,118
2018-04-20T07:37:13.311Z,118
2018-04-20T07:38:14.892Z,123
2018-04-20T07:39:16.481Z,123
2018-04-20T07:40:18.057Z,123
2018-04-20T07:41:19.677Z,123
2018-04-20T07:42:21.221Z,123
2018-04-20T07:43:22.804Z,123
2018-04-20T07:44:24.592Z,129
2018-04-20T07:45:26.053Z,129
2018-04-20T07:46:27.636Z,129
2018-04-20T07:47:29.225Z,129
2018-04-20T07:48:31.163Z,129
2018-04-20T07:49:32.792Z,129
2018-04-20T07:50:34.406Z,129
2018-04-20T07:51:35.979Z,135
2018-04-20T07:52:37.560Z,135
2018-04-20T07:53:39.139Z,135
2018-04-20T07:54:40.783Z,135
2018-04-20T07:55:42.424Z,135
2018-04-20T07:56:43.986Z,135
2018-04-20T07:57:45.668Z,135
2018-04-20T07:58:47.250Z,135
2018-04-20T07:59:48.830Z,135
2018-04-20T08:00:50.468Z,135
2018-04-20T08:01:52.101Z,140
2018-04-20T08:02:53.700Z,140
2018-04-20T08:03:55.277Z,140
2018-04-20T08:04:56.843Z,140
2018-04-20T08:05:58.460Z,140
2018-04-20T08:07:00.021Z,140
2018-04-20T08:08:01.612Z,140
2018-04-20T08:09:03.209Z,146
2018-04-20T08:10:04.777Z,146
2018-04-20T08:11:06.407Z,146
2018-04-20T08:12:07.965Z,146
2018-04-20T08:13:09.542Z,146
2018-04-20T08:14:11.110Z,146
2018-04-20T08:15:12.691Z,146
2018-04-20T08:16:14.292Z,151
2018-04-20T08:17:15.867Z,151
2018-04-20T08:18:17.442Z,151
2018-04-20T08:19:19.109Z,151
2018-04-20T08:20:20.691Z,151
2018-04-20T08:21:22.284Z,157
2018-04-20T08:22:23.860Z,151
2018-04-20T08:23:25.452Z,157
2018-04-20T08:24:27.040Z,157
2018-04-20T08:25:28.680Z,157
2018-04-20T08:26:30.261Z,157
2018-04-20T08:27:31.928Z,157
2018-04-20T08:28:33.579Z,157
2018-04-20T08:29:35.159Z,163
2018-04-20T08:30:36.741Z,163
2018-04-20T08:31:38.322Z,163
2018-04-20T08:32:39.903Z,168
2018-04-20T08:33:41.488Z,168
2018-04-20T08:34:43.309Z,168
2018-04-20T08:35:44.949Z,168
2018-04-20T08:36:46.525Z,174
2018-04-20T08:37:48.387Z,174
2018-04-20T08:38:49.989Z,174
2018-04-20T08:39:51.559Z,174
2018-04-20T08:40:53.156Z,174
2018-04-20T08:41:54.745Z,174
2018-04-20T08:42:56.354Z,174
2018-04-20T08:43:57.961Z,180
2018-04-20T08:44:59.536Z,180
2018-04-20T08:46:01.113Z,180
2018-04-20T08:47:02.691Z,185
2018-04-20T08:48:04.365Z,185
2018-04-20T08:49:05.952Z,191
2018-04-20T08:50:07.547Z,191
2018-04-20T08:51:09.162Z,196
2018-04-20T08:52:10.736Z,196
2018-04-20T08:53:12.334Z,196
2018-04-20T08:54:13.917Z,202
2018-04-20T08:55:15.527Z,202
2018-04-20T08:56:17.102Z,202
2018-04-20T08:57:18.688Z,208
2018-04-20T08:58:20.258Z,208
2018-04-20T08:59:21.834Z,208
2018-04-20T09:00:23.424Z,213
2018-04-20T09:01:25.012Z,208
2018-04-20T09:02:26.576Z,208
2018-04-20T09:03:28.166Z,208
2018-04-20T09:04:29.745Z,213
2018-04-20T09:05:31.317Z,213
2018-04-20T09:06:32.924Z,213
2018-04-20T09:07:34.503Z,213
2018-04-20T09:08:36.092Z,213
2018-04-20T09:09:37.655Z,208
2018-04-20T09:10:39.286Z,208
2018-04-20T09:11:41.020Z,208
2018-04-20T09:12:42.591Z,219
2018-04-20T09:13:44.163Z,213
2018-04-20T09:14:45.740Z,219
2018-04-20T09:15:47.300Z,219
2018-04-20T09:16:48.885Z,219
2018-04-20T09:17:50.480Z,219
2018-04-20T09:18:52.079Z,219
2018-04-20T09:19:53.669Z,225
2018-04-20T09:20:55.281Z,230
2018-04-20T09:21:56.861Z,225
2018-04-20T09:22:58.463Z,230
2018-04-20T09:24:00.073Z,230
2018-04-20T09:25:01.663Z,236
2018-04-20T09:26:03.258Z,236
2018-04-20T09:27:04.856Z,236
2018-04-20T09:28:06.439Z,236
2018-04-20T09:29:08.035Z,241
2018-04-20T09:30:09.620Z,236
2018-04-20T09:31:11.211Z,241
2018-04-20T09:32:12.788Z,241
2018-04-20T09:33:14.363Z,241
2018-04-20T09:34:15.935Z,247
2018-04-20T09:35:17.518Z,247
2018-04-20T09:36:19.094Z,247
2018-04-20T09:37:20.669Z,247
2018-04-20T09:38:22.293Z,253
2018-04-20T09:39:23.899Z,264
2018-04-20T09:40:25.464Z,258
2018-04-20T09:41:27.043Z,264
2018-04-20T09:42:28.639Z,270
2018-04-20T09:43:30.218Z,281
2018-04-20T09:44:31.791Z,275
2018-04-20T09:45:33.349Z,286
2018-04-20T09:46:34.922Z,292
2018-04-20T09:47:36.508Z,292
2018-04-20T09:48:38.080Z,303
2018-04-20T09:49:39.655Z,303
2018-04-20T09:50:41.300Z,303
2018-04-20T09:51:42.835Z,309
2018-04-20T09:52:44.430Z,309
2018-04-20T09:53:45.996Z,309
2018-04-20T09:54:47.570Z,315
2018-04-20T09:55:49.135Z,320
2018-04-20T09:56:50.707Z,320
2018-04-20T09:57:52.269Z,320
2018-04-20T09:58:53.852Z,326
2018-04-20T09:59:55.420Z,326
2018-04-20T10:00:56.986Z,326
2018-04-20T10:01:58.560Z,331
2018-04-20T10:03:00.131Z,331
2018-04-20T10:04:01.707Z,331
2018-04-20T10:05:03.299Z,331
2018-04-20T10:06:04.873Z,326
2018-04-20T10:07:06.465Z,326
2018-04-20T10:08:08.043Z,326
2018-04-20T10:09:09.630Z,326
2018-04-20T10:10:11.258Z,326
2018-04-20T10:11:12.838Z,326
2018-04-20T10:12:14.421Z,331
2018-04-20T10:13:15.984Z,331
2018-04-20T10:14:17.566Z,331
2018-04-20T10:15:19.135Z,331
2018-04-20T10:16:20.698Z,337
2018-04-20T10:17:22.281Z,343
2018-04-20T10:18:23.860Z,343
2018-04-20T10:19:25.448Z,343
2018-04-20T10:20:27.051Z,343
2018-04-20T10:21:28.619Z,343
2018-04-20T10:22:30.211Z,343
2018-04-20T10:23:31.796Z,337
2018-04-20T10:24:33.389Z,331
2018-04-20T10:25:34.964Z,326
2018-04-20T10:26:36.557Z,326
2018-04-20T10:27:38.134Z,320
2018-04-20T10:28:39.710Z,320
2018-04-20T10:29:41.309Z,315
2018-04-20T10:30:42.883Z,309
2018-04-20T10:31:44.481Z,309
2018-04-20T10:32:46.061Z,303
2018-04-20T10:33:47.639Z,303
2018-04-20T10:34:49.214Z,309
2018-04-20T10:35:50.845Z,303
2018-04-20T10:36:52.390Z,303
2018-04-20T10:37:53.966Z,309
2018-04-20T10:38:55.579Z,309
2018-04-20T10:39:57.167Z,309
2018-04-20T10:40:58.749Z,320
2018-04-20T10:42:00.348Z,315
2018-04-20T10:43:01.941Z,315
2018-04-20T10:44:03.521Z,315
2018-04-20T10:45:05.100Z,320
2018-04-20T10:46:06.681Z,320
2018-04-20T10:47:08.255Z,320
2018-04-20T10:48:09.832Z,320
2018-04-20T10:49:11.419Z,326
2018-04-20T10:50:13.000Z,320
2018-04-20T10:51:14.597Z,320
2018-04-20T10:52:16.179Z,326
2018-04-20T10:53:17.752Z,326
2018-04-20T10:54:19.338Z,326
2018-04-20T10:55:20.921Z,326
2018-04-20T10:56:22.510Z,326
2018-04-20T10:57:24.077Z,331
2018-04-20T10:58:25.655Z,331
2018-04-20T10:59:27.234Z,331
2018-04-20T11:00:28.809Z,331
2018-04-20T11:01:30.397Z,331
2018-04-20T11:02:31.970Z,337
2018-04-20T11:03:33.633Z,337
2018-04-20T11:04:35.144Z,337
2018-04-20T11:05:36.715Z,343
2018-04-20T11:06:38.321Z,343
2018-04-20T11:07:39.887Z,348
2018-04-20T11:08:41.478Z,348
2018-04-20T11:09:43.069Z,348
2018-04-20T11:10:44.650Z,348
2018-04-20T11:11:46.260Z,354
2018-04-20T11:12:47.820Z,354
2018-04-20T11:13:49.427Z,354
2018-04-20T11:14:51.019Z,354
2018-04-20T11:15:52.609Z,354
2018-04-20T11:16:54.188Z,360
2018-04-20T11:17:55.759Z,360
2018-04-20T11:18:57.338Z,365
2018-04-20T11:19:58.950Z,365
2018-04-20T11:21:00.524Z,376
2018-04-20T11:22:02.115Z,371
2018-04-20T11:23:03.721Z,371
2018-04-20T11:24:05.301Z,365
2018-04-20T11:25:06.879Z,365
2018-04-20T11:26:09.244Z,360
2018-04-20T11:27:10.857Z,365
2018-04-20T11:28:12.501Z,365
2018-04-20T11:29:14.078Z,371
2018-04-20T11:30:15.681Z,376
2018-04-20T11:31:17.294Z,376
2018-04-20T11:32:18.883Z,382
2018-04-20T11:33:20.485Z,382
2018-04-20T11:34:22.101Z,388
2018-04-20T11:35:24.185Z,393
2018-04-20T11:36:25.820Z,393
2018-04-20T11:37:27.398Z,399
2018-04-20T11:38:28.999Z,405
2018-04-20T11:39:30.589Z,416
2018-04-20T11:40:32.171Z,421
2018-04-20T11:41:33.741Z,427
2018-04-20T11:42:35.334Z,438
2018-04-20T11:43:36.935Z,450
2018-04-20T11:44:38.523Z,461
2018-04-20T11:45:40.096Z,472
2018-04-20T11:46:41.685Z,495
2018-04-20T11:47:43.276Z,523
2018-04-20T11:48:44.861Z,821
2018-04-20T11:49:46.449Z,2002
2018-04-20T11:50:48.055Z,3043
2018-04-20T11:51:49.650Z,3183
2018-04-20T11:52:51.235Z,3200
2018-04-20T11:53:52.878Z,3161
2018-04-20T11:54:54.407Z,3015
2018-04-20T11:55:56.001Z,2694
2018-04-20T11:56:57.593Z,2621
2018-04-20T11:57:59.173Z,2536
2018-04-20T11:59:00.785Z,2548
2018-04-20T12:00:02.386Z,2401
2018-04-20T12:01:03.972Z,2548
2018-04-20T12:02:05.565Z,2452
2018-04-20T12:03:07.164Z,2176
2018-04-20T12:04:08.752Z,1991
2018-04-20T12:05:10.331Z,2098
2018-04-20T12:06:11.919Z,2233
2018-04-20T12:07:13.499Z,2266
2018-04-20T12:08:15.087Z,2351
2018-04-20T12:09:16.679Z,2418
2018-04-20T12:10:18.284Z,2514
2018-04-20T12:11:19.897Z,2266
2018-04-20T12:12:21.506Z,2041
2018-04-20T12:13:23.102Z,2323
2018-04-20T12:14:24.704Z,2109
2018-04-20T12:15:26.301Z,2103
2018-04-20T12:16:27.901Z,2075
2018-04-20T12:17:29.502Z,2070
2018-04-20T12:18:31.107Z,1884
2018-04-20T12:19:32.699Z,1710
2018-04-20T12:20:34.291Z,1631
2018-04-20T12:21:35.897Z,1513
2018-04-20T12:22:37.469Z,1665
2018-04-20T12:23:39.058Z,1721
2018-04-20T12:24:40.661Z,1665
2018-04-20T12:25:42.250Z,1704
2018-04-20T12:26:43.853Z,1828
2018-04-20T12:27:45.441Z,2058
2018-04-20T12:28:47.051Z,2148
2018-04-20T12:29:48.653Z,2188
2018-04-20T12:30:50.236Z,2306
2018-04-20T12:31:51.815Z,2379
2018-04-20T12:32:53.418Z,2446
2018-04-20T12:33:55.007Z,2598
2018-04-20T12:34:56.602Z,2452
2018-04-20T12:35:58.215Z,2368
2018-04-20T12:36:59.786Z,2300
2018-04-20T12:38:01.430Z,2261
2018-04-20T12:39:03.072Z,2255
2018-04-20T12:40:04.620Z,2199
2018-04-20T12:41:06.223Z,1743
2018-04-20T12:42:07.813Z,1766
2018-04-20T12:43:09.392Z,2081
2018-04-20T12:44:11.111Z,2165
2018-04-20T12:45:12.655Z,2216
2018-04-20T12:46:14.240Z,2165
2018-04-20T12:47:15.845Z,1991
2018-04-20T12:48:17.447Z,1923
2018-04-20T12:49:19.034Z,1980
2018-04-20T12:50:20.623Z,1884
2018-04-20T12:51:22.224Z,1929
2018-04-20T12:52:23.807Z,1878
2018-04-20T12:53:25.400Z,1586
2018-04-20T12:54:26.998Z,1490
2018-04-20T12:55:28.576Z,1456
2018-04-20T12:56:30.180Z,1586
2018-04-20T12:57:31.809Z,1687
2018-04-20T12:58:33.392Z,1648
2018-04-20T12:59:34.996Z,1732
2018-04-20T13:00:36.592Z,1766
2018-04-20T13:01:38.273Z,1856
2018-04-20T13:02:39.873Z,1918
2018-04-20T13:03:41.470Z,1968
2018-04-20T13:04:43.063Z,2041
2018-04-20T13:05:44.655Z,1895
2018-04-20T13:06:46.251Z,1991
2018-04-20T13:07:47.838Z,2109
2018-04-20T13:08:49.448Z,2300
2018-04-20T13:09:51.054Z,2520
2018-04-20T13:10:52.632Z,2491
2018-04-20T13:11:54.214Z,2340
2018-04-20T13:12:55.806Z,2244
2018-04-20T13:13:57.389Z,2266
2018-04-20T13:14:58.975Z,2430
2018-04-20T13:16:00.650Z,2610
2018-04-20T13:17:02.175Z,2463
2018-04-20T13:18:03.770Z,2396
2018-04-20T13:19:05.363Z,2463
2018-04-20T13:20:06.961Z,2503
2018-04-20T13:21:08.569Z,2638
2018-04-20T13:22:10.162Z,2806
2018-04-20T13:23:11.736Z,2913
2018-04-20T13:24:13.338Z,2925
2018-04-20T13:25:14.916Z,2761
2018-04-20T13:26:16.502Z,2728
2018-04-20T13:27:18.103Z,2992
2018-04-20T13:28:19.750Z,2941
2018-04-20T13:29:21.338Z,2868
2018-04-20T13:30:22.934Z,2840
2018-04-20T13:31:24.532Z,2880
2018-04-20T13:32:26.101Z,2823
2018-04-20T13:33:27.696Z,2986
2018-04-20T13:34:29.277Z,3003
2018-04-20T13:35:30.851Z,2981
2018-04-20T13:36:32.433Z,2407
2018-04-20T13:37:34.022Z,1215
2018-04-20T13:38:35.618Z,793
2018-04-20T13:39:37.208Z,793
2018-04-20T13:40:38.820Z,776
2018-04-20T13:41:40.432Z,759
2018-04-20T13:42:42.078Z,748
2018-04-20T13:43:43.677Z,742
2018-04-20T13:44:45.268Z,742
2018-04-20T13:45:46.856Z,753
2018-04-20T13:46:48.443Z,765
2018-04-20T13:47:50.031Z,810
2018-04-20T13:48:51.641Z,1788
2018-04-20T13:49:53.218Z,2795
2018-04-20T13:50:54.810Z,2728
2018-04-20T13:51:56.399Z,2475
2018-04-20T13:52:57.990Z,1468
2018-04-20T13:53:59.586Z,765
2018-04-20T13:55:01.181Z,720
2018-04-20T13:56:02.779Z,703
2018-04-20T13:57:04.380Z,697
2018-04-20T13:58:05.951Z,680
2018-04-20T13:59:07.538Z,675
2018-04-20T14:00:09.136Z,669
2018-04-20T14:01:10.828Z,669
2018-04-20T14:02:12.412Z,663
2018-04-20T14:03:14.069Z,663
2018-04-20T14:04:15.587Z,663
2018-04-20T14:05:17.186Z,658
2018-04-20T14:06:18.793Z,652
2018-04-20T14:07:20.432Z,652
2018-04-20T14:08:22.023Z,652
2018-04-20T14:09:23.610Z,641
2018-04-20T14:10:25.271Z,635
2018-04-20T14:11:26.872Z,641
2018-04-20T14:12:28.490Z,635
2018-04-20T14:13:30.069Z,635
2018-04-20T14:14:31.661Z,635
2018-04-20T14:15:33.270Z,635
2018-04-20T14:16:34.861Z,646
2018-04-20T14:17:36.555Z,697
2018-04-20T14:18:38.139Z,1485
2018-04-20T14:19:39.745Z,2452
2018-04-20T14:20:41.346Z,2306
2018-04-20T14:21:42.950Z,1451
2018-04-20T14:22:44.527Z,736
2018-04-20T14:23:46.131Z,703
2018-04-20T14:24:47.731Z,703
2018-04-20T14:25:49.344Z,714
2018-04-20T14:26:50.921Z,703
2018-04-20T14:27:52.527Z,703
2018-04-20T14:28:54.178Z,708
2018-04-20T14:29:55.785Z,703
2018-04-20T14:30:57.399Z,703